sensor_id;sensor_type;location;lat;lon;timestamp;P1;durP1;ratioP1;P2;durP2;ratioP2
25023;SDS011;13033;50.936;5.334;2023-04-24T00:01:42;14.90;;;8.52;;
25023;SDS011;13033;50.936;5.334;2023-04-24T00:04:08;17.75;;;8.80;;
25023;SDS011;13033;50.936;5.334;2023-04-24T00:06:35;15.68;;;8.75;;
25023;SDS011;13033;50.936;5.334;2023-04-24T00:09:07;17.60;;;9.77;;
25023;SDS011;13033;50.936;5.334;2023-04-24T00:11:35;20.95;;;10.50;;
25023;SDS011;13033;50.936;5.334;2023-04-24T00:14:01;16.17;;;9.65;;
25023;SDS011;13033;50.936;5.334;2023-04-24T00:16:27;22.80;;;11.18;;
25023;SDS011;13033;50.936;5.334;2023-04-24T00:18:53;18.10;;;10.95;;
25023;SDS011;13033;50.936;5.334;2023-04-24T00:21:19;21.58;;;10.90;;
25023;SDS011;13033;50.936;5.334;2023-04-24T00:23:45;20.05;;;10.23;;
25023;SDS011;13033;50.936;5.334;2023-04-24T00:26:11;14.25;;;10.00;;
25023;SDS011;13033;50.936;5.334;2023-04-24T00:28:36;19.52;;;10.43;;
25023;SDS011;13033;50.936;5.334;2023-04-24T00:31:02;15.60;;;9.95;;
25023;SDS011;13033;50.936;5.334;2023-04-24T00:33:28;17.67;;;11.45;;
25023;SDS011;13033;50.936;5.334;2023-04-24T00:35:53;17.42;;;11.52;;
25023;SDS011;13033;50.936;5.334;2023-04-24T00:38:19;23.35;;;12.70;;
25023;SDS011;13033;50.936;5.334;2023-04-24T00:40:45;19.70;;;11.55;;
25023;SDS011;13033;50.936;5.334;2023-04-24T00:43:10;20.35;;;12.15;;
25023;SDS011;13033;50.936;5.334;2023-04-24T00:45:36;18.80;;;12.68;;
25023;SDS011;13033;50.936;5.334;2023-04-24T00:48:02;23.42;;;12.80;;
25023;SDS011;13033;50.936;5.334;2023-04-24T00:50:29;21.73;;;13.32;;
25023;SDS011;13033;50.936;5.334;2023-04-24T00:52:55;24.13;;;12.73;;
25023;SDS011;13033;50.936;5.334;2023-04-24T00:55:21;23.15;;;13.50;;
25023;SDS011;13033;50.936;5.334;2023-04-24T00:57:47;20.45;;;13.20;;
25023;SDS011;13033;50.936;5.334;2023-04-24T01:00:14;26.50;;;13.38;;
25023;SDS011;13033;50.936;5.334;2023-04-24T01:02:41;27.30;;;13.40;;
25023;SDS011;13033;50.936;5.334;2023-04-24T01:05:10;21.08;;;12.82;;
25023;SDS011;13033;50.936;5.334;2023-04-24T01:07:40;22.58;;;13.85;;
25023;SDS011;13033;50.936;5.334;2023-04-24T01:10:10;22.48;;;13.40;;
25023;SDS011;13033;50.936;5.334;2023-04-24T01:12:37;22.23;;;14.35;;
25023;SDS011;13033;50.936;5.334;2023-04-24T01:15:03;21.70;;;13.30;;
25023;SDS011;13033;50.936;5.334;2023-04-24T01:17:31;25.17;;;14.02;;
25023;SDS011;13033;50.936;5.334;2023-04-24T01:19:57;25.98;;;14.57;;
25023;SDS011;13033;50.936;5.334;2023-04-24T01:22:25;26.70;;;13.73;;
25023;SDS011;13033;50.936;5.334;2023-04-24T01:24:51;20.58;;;13.38;;
25023;SDS011;13033;50.936;5.334;2023-04-24T01:27:17;24.85;;;13.73;;
25023;SDS011;13033;50.936;5.334;2023-04-24T01:29:43;22.95;;;13.90;;
25023;SDS011;13033;50.936;5.334;2023-04-24T01:32:08;26.17;;;13.38;;
25023;SDS011;13033;50.936;5.334;2023-04-24T01:34:34;24.38;;;13.07;;
25023;SDS011;13033;50.936;5.334;2023-04-24T01:37:00;24.95;;;12.98;;
25023;SDS011;13033;50.936;5.334;2023-04-24T01:39:26;21.33;;;11.80;;
25023;SDS011;13033;50.936;5.334;2023-04-24T01:41:53;22.25;;;13.05;;
25023;SDS011;13033;50.936;5.334;2023-04-24T01:44:20;22.55;;;12.52;;
25023;SDS011;13033;50.936;5.334;2023-04-24T01:46:47;22.75;;;13.63;;
25023;SDS011;13033;50.936;5.334;2023-04-24T01:49:12;22.42;;;12.50;;
25023;SDS011;13033;50.936;5.334;2023-04-24T01:51:38;24.90;;;13.43;;
25023;SDS011;13033;50.936;5.334;2023-04-24T01:54:04;23.33;;;13.15;;
25023;SDS011;13033;50.936;5.334;2023-04-24T01:56:30;21.10;;;12.23;;
25023;SDS011;13033;50.936;5.334;2023-04-24T01:59:00;22.73;;;13.10;;
25023;SDS011;13033;50.936;5.334;2023-04-24T02:01:29;24.05;;;13.55;;
25023;SDS011;13033;50.936;5.334;2023-04-24T02:03:59;19.65;;;12.18;;
25023;SDS011;13033;50.936;5.334;2023-04-24T02:06:25;20.38;;;12.30;;
25023;SDS011;13033;50.936;5.334;2023-04-24T02:08:51;30.90;;;13.38;;
25023;SDS011;13033;50.936;5.334;2023-04-24T02:11:17;22.23;;;13.85;;
25023;SDS011;13033;50.936;5.334;2023-04-24T02:13:43;20.98;;;14.43;;
25023;SDS011;13033;50.936;5.334;2023-04-24T02:16:09;25.25;;;15.20;;
25023;SDS011;13033;50.936;5.334;2023-04-24T02:18:35;26.17;;;14.52;;
25023;SDS011;13033;50.936;5.334;2023-04-24T02:21:01;23.33;;;14.20;;
25023;SDS011;13033;50.936;5.334;2023-04-24T02:23:26;24.38;;;14.45;;
25023;SDS011;13033;50.936;5.334;2023-04-24T02:25:52;25.50;;;14.82;;
25023;SDS011;13033;50.936;5.334;2023-04-24T02:28:18;25.95;;;13.88;;
25023;SDS011;13033;50.936;5.334;2023-04-24T02:30:44;26.08;;;14.13;;
25023;SDS011;13033;50.936;5.334;2023-04-24T02:33:11;26.13;;;15.23;;
25023;SDS011;13033;50.936;5.334;2023-04-24T02:35:36;24.42;;;13.57;;
25023;SDS011;13033;50.936;5.334;2023-04-24T02:38:02;18.92;;;13.30;;
25023;SDS011;13033;50.936;5.334;2023-04-24T02:40:28;24.60;;;14.18;;
25023;SDS011;13033;50.936;5.334;2023-04-24T02:42:54;23.38;;;14.23;;
25023;SDS011;13033;50.936;5.334;2023-04-24T02:45:20;21.63;;;13.43;;
25023;SDS011;13033;50.936;5.334;2023-04-24T02:47:46;18.75;;;12.43;;
25023;SDS011;13033;50.936;5.334;2023-04-24T02:50:11;19.20;;;12.93;;
25023;SDS011;13033;50.936;5.334;2023-04-24T02:52:37;20.77;;;12.38;;
25023;SDS011;13033;50.936;5.334;2023-04-24T02:55:03;19.27;;;12.40;;
25023;SDS011;13033;50.936;5.334;2023-04-24T02:57:29;20.25;;;12.77;;
25023;SDS011;13033;50.936;5.334;2023-04-24T02:59:55;19.83;;;12.73;;
25023;SDS011;13033;50.936;5.334;2023-04-24T03:02:20;17.98;;;12.75;;
25023;SDS011;13033;50.936;5.334;2023-04-24T03:04:46;20.23;;;12.25;;
25023;SDS011;13033;50.936;5.334;2023-04-24T03:07:13;21.25;;;13.15;;
25023;SDS011;13033;50.936;5.334;2023-04-24T03:09:39;19.25;;;13.07;;
25023;SDS011;13033;50.936;5.334;2023-04-24T03:12:05;18.80;;;13.40;;
25023;SDS011;13033;50.936;5.334;2023-04-24T03:14:31;19.42;;;13.45;;
25023;SDS011;13033;50.936;5.334;2023-04-24T03:16:57;20.60;;;13.35;;
25023;SDS011;13033;50.936;5.334;2023-04-24T03:19:22;20.58;;;13.70;;
25023;SDS011;13033;50.936;5.334;2023-04-24T03:21:48;20.50;;;13.35;;
25023;SDS011;13033;50.936;5.334;2023-04-24T03:24:14;20.20;;;13.18;;
25023;SDS011;13033;50.936;5.334;2023-04-24T03:26:40;18.30;;;11.65;;
25023;SDS011;13033;50.936;5.334;2023-04-24T03:29:06;21.63;;;13.32;;
25023;SDS011;13033;50.936;5.334;2023-04-24T03:31:31;20.42;;;11.50;;
25023;SDS011;13033;50.936;5.334;2023-04-24T03:33:57;19.05;;;13.45;;
25023;SDS011;13033;50.936;5.334;2023-04-24T03:36:23;18.58;;;11.98;;
25023;SDS011;13033;50.936;5.334;2023-04-24T03:38:48;20.00;;;12.18;;
25023;SDS011;13033;50.936;5.334;2023-04-24T03:41:14;20.02;;;12.35;;
25023;SDS011;13033;50.936;5.334;2023-04-24T03:43:39;18.48;;;13.00;;
25023;SDS011;13033;50.936;5.334;2023-04-24T03:46:05;19.65;;;12.15;;
25023;SDS011;13033;50.936;5.334;2023-04-24T03:48:31;20.15;;;12.15;;
25023;SDS011;13033;50.936;5.334;2023-04-24T03:50:57;16.90;;;11.98;;
25023;SDS011;13033;50.936;5.334;2023-04-24T03:53:23;21.00;;;12.55;;
25023;SDS011;13033;50.936;5.334;2023-04-24T03:55:48;21.42;;;12.27;;
25023;SDS011;13033;50.936;5.334;2023-04-24T03:58:14;20.38;;;13.38;;
25023;SDS011;13033;50.936;5.334;2023-04-24T04:00:40;18.95;;;12.43;;
25023;SDS011;13033;50.936;5.334;2023-04-24T04:03:06;21.08;;;12.23;;
25023;SDS011;13033;50.936;5.334;2023-04-24T04:05:31;20.40;;;12.13;;
25023;SDS011;13033;50.936;5.334;2023-04-24T04:07:57;19.65;;;13.18;;
25023;SDS011;13033;50.936;5.334;2023-04-24T04:10:23;18.02;;;10.73;;
25023;SDS011;13033;50.936;5.334;2023-04-24T04:12:48;19.55;;;12.48;;
25023;SDS011;13033;50.936;5.334;2023-04-24T04:15:14;18.67;;;12.48;;
25023;SDS011;13033;50.936;5.334;2023-04-24T04:17:41;18.95;;;12.10;;
25023;SDS011;13033;50.936;5.334;2023-04-24T04:20:07;19.02;;;11.07;;
25023;SDS011;13033;50.936;5.334;2023-04-24T04:22:35;17.73;;;10.02;;
25023;SDS011;13033;50.936;5.334;2023-04-24T04:25:01;15.95;;;10.35;;
25023;SDS011;13033;50.936;5.334;2023-04-24T04:27:28;17.27;;;10.10;;
25023;SDS011;13033;50.936;5.334;2023-04-24T04:29:57;19.38;;;9.75;;
25023;SDS011;13033;50.936;5.334;2023-04-24T04:32:24;14.80;;;10.48;;
25023;SDS011;13033;50.936;5.334;2023-04-24T04:34:49;17.48;;;9.65;;
25023;SDS011;13033;50.936;5.334;2023-04-24T04:37:18;17.27;;;11.00;;
25023;SDS011;13033;50.936;5.334;2023-04-24T04:39:43;17.42;;;10.18;;
25023;SDS011;13033;50.936;5.334;2023-04-24T04:42:09;15.35;;;9.48;;
25023;SDS011;13033;50.936;5.334;2023-04-24T04:44:35;14.52;;;9.40;;
25023;SDS011;13033;50.936;5.334;2023-04-24T04:47:01;14.57;;;10.77;;
25023;SDS011;13033;50.936;5.334;2023-04-24T04:49:29;14.85;;;10.02;;
25023;SDS011;13033;50.936;5.334;2023-04-24T04:51:55;17.73;;;10.25;;
25023;SDS011;13033;50.936;5.334;2023-04-24T04:54:21;17.75;;;11.20;;
25023;SDS011;13033;50.936;5.334;2023-04-24T04:56:47;14.75;;;9.95;;
25023;SDS011;13033;50.936;5.334;2023-04-24T04:59:15;18.20;;;10.25;;
25023;SDS011;13033;50.936;5.334;2023-04-24T05:01:41;17.65;;;10.30;;
25023;SDS011;13033;50.936;5.334;2023-04-24T05:04:06;15.45;;;9.60;;
25023;SDS011;13033;50.936;5.334;2023-04-24T05:06:32;13.27;;;10.05;;
25023;SDS011;13033;50.936;5.334;2023-04-24T05:08:58;12.68;;;7.72;;
25023;SDS011;13033;50.936;5.334;2023-04-24T05:11:23;10.85;;;8.20;;
25023;SDS011;13033;50.936;5.334;2023-04-24T05:13:49;10.77;;;8.20;;
25023;SDS011;13033;50.936;5.334;2023-04-24T05:16:14;14.48;;;8.98;;
25023;SDS011;13033;50.936;5.334;2023-04-24T05:18:40;12.77;;;8.35;;
25023;SDS011;13033;50.936;5.334;2023-04-24T05:21:06;14.75;;;9.52;;
25023;SDS011;13033;50.936;5.334;2023-04-24T05:23:31;17.88;;;10.13;;
25023;SDS011;13033;50.936;5.334;2023-04-24T05:25:57;18.52;;;10.05;;
25023;SDS011;13033;50.936;5.334;2023-04-24T05:28:23;14.07;;;9.70;;
25023;SDS011;13033;50.936;5.334;2023-04-24T05:30:53;13.45;;;9.05;;
25023;SDS011;13033;50.936;5.334;2023-04-24T05:33:19;17.58;;;10.45;;
25023;SDS011;13033;50.936;5.334;2023-04-24T05:35:45;16.02;;;10.10;;
25023;SDS011;13033;50.936;5.334;2023-04-24T05:38:12;14.60;;;9.07;;
25023;SDS011;13033;50.936;5.334;2023-04-24T05:40:38;13.52;;;8.57;;
25023;SDS011;13033;50.936;5.334;2023-04-24T05:43:04;14.15;;;8.60;;
25023;SDS011;13033;50.936;5.334;2023-04-24T05:45:30;11.27;;;7.57;;
25023;SDS011;13033;50.936;5.334;2023-04-24T05:47:56;13.13;;;7.28;;
25023;SDS011;13033;50.936;5.334;2023-04-24T05:50:22;10.27;;;7.68;;
25023;SDS011;13033;50.936;5.334;2023-04-24T05:52:48;11.00;;;6.70;;
25023;SDS011;13033;50.936;5.334;2023-04-24T05:55:13;8.13;;;5.78;;
25023;SDS011;13033;50.936;5.334;2023-04-24T05:57:39;12.38;;;7.65;;
25023;SDS011;13033;50.936;5.334;2023-04-24T06:00:05;11.05;;;6.82;;
25023;SDS011;13033;50.936;5.334;2023-04-24T06:02:31;11.63;;;7.75;;
25023;SDS011;13033;50.936;5.334;2023-04-24T06:04:58;15.38;;;8.15;;
25023;SDS011;13033;50.936;5.334;2023-04-24T06:07:27;10.00;;;7.13;;
25023;SDS011;13033;50.936;5.334;2023-04-24T06:09:52;12.95;;;8.50;;
25023;SDS011;13033;50.936;5.334;2023-04-24T06:12:18;12.55;;;7.68;;
25023;SDS011;13033;50.936;5.334;2023-04-24T06:14:43;13.43;;;8.93;;
25023;SDS011;13033;50.936;5.334;2023-04-24T06:17:09;15.52;;;8.77;;
25023;SDS011;13033;50.936;5.334;2023-04-24T06:19:35;17.90;;;11.02;;
25023;SDS011;13033;50.936;5.334;2023-04-24T06:22:00;16.38;;;10.82;;
25023;SDS011;13033;50.936;5.334;2023-04-24T06:24:29;21.38;;;10.77;;
25023;SDS011;13033;50.936;5.334;2023-04-24T06:26:55;17.75;;;10.27;;
25023;SDS011;13033;50.936;5.334;2023-04-24T06:29:22;15.98;;;10.75;;
25023;SDS011;13033;50.936;5.334;2023-04-24T06:31:47;14.10;;;10.23;;
25023;SDS011;13033;50.936;5.334;2023-04-24T06:34:13;14.27;;;9.27;;
25023;SDS011;13033;50.936;5.334;2023-04-24T06:36:39;15.30;;;8.73;;
25023;SDS011;13033;50.936;5.334;2023-04-24T06:39:04;14.70;;;8.32;;
25023;SDS011;13033;50.936;5.334;2023-04-24T06:41:30;13.88;;;8.15;;
25023;SDS011;13033;50.936;5.334;2023-04-24T06:43:56;15.63;;;9.02;;
25023;SDS011;13033;50.936;5.334;2023-04-24T06:46:21;13.35;;;8.98;;
25023;SDS011;13033;50.936;5.334;2023-04-24T06:48:50;15.35;;;8.55;;
25023;SDS011;13033;50.936;5.334;2023-04-24T06:51:17;15.20;;;9.65;;
25023;SDS011;13033;50.936;5.334;2023-04-24T06:53:43;16.35;;;9.88;;
25023;SDS011;13033;50.936;5.334;2023-04-24T06:56:09;15.25;;;9.18;;
25023;SDS011;13033;50.936;5.334;2023-04-24T06:58:34;17.55;;;10.00;;
25023;SDS011;13033;50.936;5.334;2023-04-24T07:01:00;21.80;;;10.85;;
25023;SDS011;13033;50.936;5.334;2023-04-24T07:03:26;18.13;;;11.10;;
25023;SDS011;13033;50.936;5.334;2023-04-24T07:05:51;18.25;;;11.88;;
25023;SDS011;13033;50.936;5.334;2023-04-24T07:08:18;17.38;;;10.75;;
25023;SDS011;13033;50.936;5.334;2023-04-24T07:10:45;22.83;;;12.40;;
25023;SDS011;13033;50.936;5.334;2023-04-24T07:13:11;21.85;;;12.93;;
25023;SDS011;13033;50.936;5.334;2023-04-24T07:15:36;20.15;;;13.27;;
25023;SDS011;13033;50.936;5.334;2023-04-24T07:18:02;24.08;;;13.90;;
25023;SDS011;13033;50.936;5.334;2023-04-24T07:20:28;26.23;;;13.90;;
25023;SDS011;13033;50.936;5.334;2023-04-24T07:22:54;24.48;;;13.75;;
25023;SDS011;13033;50.936;5.334;2023-04-24T07:25:19;23.30;;;12.98;;
25023;SDS011;13033;50.936;5.334;2023-04-24T07:27:45;24.23;;;14.45;;
25023;SDS011;13033;50.936;5.334;2023-04-24T07:30:11;24.77;;;13.05;;
25023;SDS011;13033;50.936;5.334;2023-04-24T07:32:37;26.77;;;15.00;;
25023;SDS011;13033;50.936;5.334;2023-04-24T07:35:02;25.83;;;14.23;;
25023;SDS011;13033;50.936;5.334;2023-04-24T07:37:28;23.33;;;12.93;;
25023;SDS011;13033;50.936;5.334;2023-04-24T07:39:54;25.27;;;14.00;;
25023;SDS011;13033;50.936;5.334;2023-04-24T07:42:20;22.02;;;12.93;;
25023;SDS011;13033;50.936;5.334;2023-04-24T07:44:45;26.90;;;15.02;;
25023;SDS011;13033;50.936;5.334;2023-04-24T07:47:12;24.00;;;14.02;;
25023;SDS011;13033;50.936;5.334;2023-04-24T07:49:41;27.65;;;15.55;;
25023;SDS011;13033;50.936;5.334;2023-04-24T07:52:07;23.10;;;14.35;;
25023;SDS011;13033;50.936;5.334;2023-04-24T07:54:33;22.52;;;13.73;;
25023;SDS011;13033;50.936;5.334;2023-04-24T07:56:58;26.02;;;15.52;;
25023;SDS011;13033;50.936;5.334;2023-04-24T07:59:25;27.77;;;16.08;;
25023;SDS011;13033;50.936;5.334;2023-04-24T08:01:50;26.48;;;17.15;;
25023;SDS011;13033;50.936;5.334;2023-04-24T08:04:16;31.02;;;16.50;;
25023;SDS011;13033;50.936;5.334;2023-04-24T08:06:43;30.38;;;18.00;;
25023;SDS011;13033;50.936;5.334;2023-04-24T08:09:08;29.80;;;17.55;;
25023;SDS011;13033;50.936;5.334;2023-04-24T08:11:34;33.10;;;18.00;;
25023;SDS011;13033;50.936;5.334;2023-04-24T08:14:00;38.95;;;17.88;;
25023;SDS011;13033;50.936;5.334;2023-04-24T08:16:26;28.52;;;15.00;;
25023;SDS011;13033;50.936;5.334;2023-04-24T08:18:52;24.60;;;15.75;;
25023;SDS011;13033;50.936;5.334;2023-04-24T08:21:18;25.02;;;15.32;;
25023;SDS011;13033;50.936;5.334;2023-04-24T08:23:45;28.55;;;15.13;;
25023;SDS011;13033;50.936;5.334;2023-04-24T08:26:11;27.35;;;14.32;;
25023;SDS011;13033;50.936;5.334;2023-04-24T08:28:38;25.92;;;14.27;;
25023;SDS011;13033;50.936;5.334;2023-04-24T08:31:03;26.38;;;14.13;;
25023;SDS011;13033;50.936;5.334;2023-04-24T08:33:29;23.45;;;13.00;;
25023;SDS011;13033;50.936;5.334;2023-04-24T08:36:04;21.95;;;12.25;;
25023;SDS011;13033;50.936;5.334;2023-04-24T08:38:30;22.33;;;12.80;;
25023;SDS011;13033;50.936;5.334;2023-04-24T08:40:57;22.40;;;12.60;;
25023;SDS011;13033;50.936;5.334;2023-04-24T08:43:24;21.25;;;11.93;;
25023;SDS011;13033;50.936;5.334;2023-04-24T08:45:51;22.40;;;9.98;;
25023;SDS011;13033;50.936;5.334;2023-04-24T08:48:17;19.40;;;10.20;;
25023;SDS011;13033;50.936;5.334;2023-04-24T08:50:43;17.45;;;9.70;;
25023;SDS011;13033;50.936;5.334;2023-04-24T08:53:10;18.30;;;9.15;;
25023;SDS011;13033;50.936;5.334;2023-04-24T08:55:37;15.75;;;7.70;;
25023;SDS011;13033;50.936;5.334;2023-04-24T08:58:02;24.55;;;8.98;;
25023;SDS011;13033;50.936;5.334;2023-04-24T09:00:29;16.73;;;7.13;;
25023;SDS011;13033;50.936;5.334;2023-04-24T09:02:55;14.93;;;7.25;;
25023;SDS011;13033;50.936;5.334;2023-04-24T09:05:22;18.88;;;7.78;;
25023;SDS011;13033;50.936;5.334;2023-04-24T09:07:54;15.15;;;7.43;;
25023;SDS011;13033;50.936;5.334;2023-04-24T09:10:22;18.73;;;6.45;;
25023;SDS011;13033;50.936;5.334;2023-04-24T09:12:50;13.98;;;7.22;;
25023;SDS011;13033;50.936;5.334;2023-04-24T09:15:17;17.15;;;6.47;;
25023;SDS011;13033;50.936;5.334;2023-04-24T09:17:45;15.50;;;6.78;;
25023;SDS011;13033;50.936;5.334;2023-04-24T09:20:11;14.93;;;6.55;;
25023;SDS011;13033;50.936;5.334;2023-04-24T09:22:37;17.55;;;6.15;;
25023;SDS011;13033;50.936;5.334;2023-04-24T09:25:03;17.90;;;6.63;;
25023;SDS011;13033;50.936;5.334;2023-04-24T09:27:32;14.07;;;6.38;;
25023;SDS011;13033;50.936;5.334;2023-04-24T09:29:58;16.33;;;6.40;;
25023;SDS011;13033;50.936;5.334;2023-04-24T09:32:25;18.15;;;6.47;;
25023;SDS011;13033;50.936;5.334;2023-04-24T09:35:07;13.57;;;7.00;;
25023;SDS011;13033;50.936;5.334;2023-04-24T09:37:41;21.15;;;7.20;;
25023;SDS011;13033;50.936;5.334;2023-04-24T09:40:17;24.00;;;9.07;;
25023;SDS011;13033;50.936;5.334;2023-04-24T09:42:46;17.73;;;8.50;;
25023;SDS011;13033;50.936;5.334;2023-04-24T09:47:43;16.08;;;7.90;;
25023;SDS011;13033;50.936;5.334;2023-04-24T09:50:12;21.88;;;8.48;;
25023;SDS011;13033;50.936;5.334;2023-04-24T09:52:45;14.73;;;8.13;;
25023;SDS011;13033;50.936;5.334;2023-04-24T09:55:21;18.75;;;7.75;;
25023;SDS011;13033;50.936;5.334;2023-04-24T09:57:47;17.35;;;8.15;;
25023;SDS011;13033;50.936;5.334;2023-04-24T10:00:17;17.60;;;7.60;;
25023;SDS011;13033;50.936;5.334;2023-04-24T10:02:51;18.08;;;7.53;;
25023;SDS011;13033;50.936;5.334;2023-04-24T10:05:22;18.75;;;8.82;;
25023;SDS011;13033;50.936;5.334;2023-04-24T10:07:49;21.48;;;8.80;;
25023;SDS011;13033;50.936;5.334;2023-04-24T10:10:15;14.05;;;7.88;;
25023;SDS011;13033;50.936;5.334;2023-04-24T10:12:42;13.70;;;7.45;;
25023;SDS011;13033;50.936;5.334;2023-04-24T10:15:10;13.30;;;6.30;;
25023;SDS011;13033;50.936;5.334;2023-04-24T10:17:37;12.80;;;5.47;;
25023;SDS011;13033;50.936;5.334;2023-04-24T10:20:05;10.35;;;4.35;;
25023;SDS011;13033;50.936;5.334;2023-04-24T10:22:32;19.17;;;7.47;;
25023;SDS011;13033;50.936;5.334;2023-04-24T10:24:58;15.13;;;6.30;;
25023;SDS011;13033;50.936;5.334;2023-04-24T10:27:25;16.08;;;8.52;;
25023;SDS011;13033;50.936;5.334;2023-04-24T10:29:52;18.55;;;7.55;;
25023;SDS011;13033;50.936;5.334;2023-04-24T10:32:18;15.73;;;6.88;;
25023;SDS011;13033;50.936;5.334;2023-04-24T10:34:44;17.77;;;7.45;;
25023;SDS011;13033;50.936;5.334;2023-04-24T10:37:10;15.80;;;6.72;;
25023;SDS011;13033;50.936;5.334;2023-04-24T10:39:36;14.18;;;7.35;;
25023;SDS011;13033;50.936;5.334;2023-04-24T10:42:13;19.20;;;7.90;;
25023;SDS011;13033;50.936;5.334;2023-04-24T10:44:42;13.35;;;7.10;;
25023;SDS011;13033;50.936;5.334;2023-04-24T10:47:12;20.90;;;9.15;;
25023;SDS011;13033;50.936;5.334;2023-04-24T10:49:39;13.33;;;7.03;;
25023;SDS011;13033;50.936;5.334;2023-04-24T10:52:05;17.48;;;7.43;;
25023;SDS011;13033;50.936;5.334;2023-04-24T10:54:34;13.48;;;6.93;;
25023;SDS011;13033;50.936;5.334;2023-04-24T10:59:45;17.30;;;8.57;;
25023;SDS011;13033;50.936;5.334;2023-04-24T11:02:15;19.48;;;7.43;;
25023;SDS011;13033;50.936;5.334;2023-04-24T11:04:42;14.95;;;7.13;;
25023;SDS011;13033;50.936;5.334;2023-04-24T11:07:11;17.35;;;8.10;;
25023;SDS011;13033;50.936;5.334;2023-04-24T11:09:37;17.55;;;8.15;;
25023;SDS011;13033;50.936;5.334;2023-04-24T11:12:09;21.02;;;10.00;;
25023;SDS011;13033;50.936;5.334;2023-04-24T11:17:34;16.25;;;8.52;;
25023;SDS011;13033;50.936;5.334;2023-04-24T11:20:09;21.98;;;10.18;;
25023;SDS011;13033;50.936;5.334;2023-04-24T11:22:36;15.93;;;8.30;;
25023;SDS011;13033;50.936;5.334;2023-04-24T11:25:05;14.93;;;7.60;;
25023;SDS011;13033;50.936;5.334;2023-04-24T11:27:34;12.48;;;5.95;;
25023;SDS011;13033;50.936;5.334;2023-04-24T11:30:04;11.50;;;5.18;;
25023;SDS011;13033;50.936;5.334;2023-04-24T11:37:42;11.05;;;5.35;;
25023;SDS011;13033;50.936;5.334;2023-04-24T11:40:11;13.38;;;5.57;;
25023;SDS011;13033;50.936;5.334;2023-04-24T11:42:42;9.90;;;4.70;;
25023;SDS011;13033;50.936;5.334;2023-04-24T11:45:10;12.02;;;4.50;;
25023;SDS011;13033;50.936;5.334;2023-04-24T11:47:37;9.43;;;5.28;;
25023;SDS011;13033;50.936;5.334;2023-04-24T11:50:05;10.40;;;5.13;;
25023;SDS011;13033;50.936;5.334;2023-04-24T11:52:33;14.23;;;5.72;;
25023;SDS011;13033;50.936;5.334;2023-04-24T11:55:01;14.90;;;6.13;;
25023;SDS011;13033;50.936;5.334;2023-04-24T11:57:28;10.55;;;5.20;;
25023;SDS011;13033;50.936;5.334;2023-04-24T12:00:00;11.68;;;5.40;;
25023;SDS011;13033;50.936;5.334;2023-04-24T12:02:27;11.70;;;5.47;;
25023;SDS011;13033;50.936;5.334;2023-04-24T12:04:53;11.43;;;5.20;;
25023;SDS011;13033;50.936;5.334;2023-04-24T12:07:19;11.45;;;5.30;;
25023;SDS011;13033;50.936;5.334;2023-04-24T12:09:46;10.18;;;4.75;;
25023;SDS011;13033;50.936;5.334;2023-04-24T12:12:15;9.07;;;4.63;;
25023;SDS011;13033;50.936;5.334;2023-04-24T12:14:48;11.73;;;4.25;;
25023;SDS011;13033;50.936;5.334;2023-04-24T12:17:15;9.57;;;4.13;;
25023;SDS011;13033;50.936;5.334;2023-04-24T12:19:45;10.27;;;3.58;;
25023;SDS011;13033;50.936;5.334;2023-04-24T12:22:12;10.43;;;3.80;;
25023;SDS011;13033;50.936;5.334;2023-04-24T12:24:57;9.50;;;3.97;;
25023;SDS011;13033;50.936;5.334;2023-04-24T12:27:26;9.13;;;3.60;;
25023;SDS011;13033;50.936;5.334;2023-04-24T12:29:57;8.48;;;3.38;;
25023;SDS011;13033;50.936;5.334;2023-04-24T12:32:24;6.68;;;3.65;;
25023;SDS011;13033;50.936;5.334;2023-04-24T12:34:51;10.90;;;4.03;;
25023;SDS011;13033;50.936;5.334;2023-04-24T12:37:17;9.93;;;4.40;;
25023;SDS011;13033;50.936;5.334;2023-04-24T12:42:30;10.38;;;5.28;;
25023;SDS011;13033;50.936;5.334;2023-04-24T12:45:00;9.43;;;4.63;;
25023;SDS011;13033;50.936;5.334;2023-04-24T12:47:32;8.68;;;4.97;;
25023;SDS011;13033;50.936;5.334;2023-04-24T12:49:59;12.07;;;5.13;;
25023;SDS011;13033;50.936;5.334;2023-04-24T12:52:26;12.48;;;4.68;;
25023;SDS011;13033;50.936;5.334;2023-04-24T12:54:55;9.48;;;4.45;;
25023;SDS011;13033;50.936;5.334;2023-04-24T12:57:22;6.30;;;3.95;;
25023;SDS011;13033;50.936;5.334;2023-04-24T12:59:48;8.15;;;3.65;;
25023;SDS011;13033;50.936;5.334;2023-04-24T13:02:14;7.57;;;3.80;;
25023;SDS011;13033;50.936;5.334;2023-04-24T13:04:43;8.00;;;4.10;;
25023;SDS011;13033;50.936;5.334;2023-04-24T13:07:11;7.82;;;4.15;;
25023;SDS011;13033;50.936;5.334;2023-04-24T13:09:37;9.45;;;4.57;;
25023;SDS011;13033;50.936;5.334;2023-04-24T13:12:03;10.38;;;4.43;;
25023;SDS011;13033;50.936;5.334;2023-04-24T13:14:30;8.73;;;4.22;;
25023;SDS011;13033;50.936;5.334;2023-04-24T13:16:56;12.48;;;4.47;;
25023;SDS011;13033;50.936;5.334;2023-04-24T13:19:24;6.07;;;4.15;;
25023;SDS011;13033;50.936;5.334;2023-04-24T13:21:51;9.52;;;4.07;;
25023;SDS011;13033;50.936;5.334;2023-04-24T13:24:17;8.13;;;3.92;;
25023;SDS011;13033;50.936;5.334;2023-04-24T13:26:42;9.20;;;4.50;;
25023;SDS011;13033;50.936;5.334;2023-04-24T13:29:08;9.80;;;4.40;;
25023;SDS011;13033;50.936;5.334;2023-04-24T13:31:34;7.55;;;4.32;;
25023;SDS011;13033;50.936;5.334;2023-04-24T13:34:00;8.50;;;4.50;;
25023;SDS011;13033;50.936;5.334;2023-04-24T13:36:27;9.75;;;4.10;;
25023;SDS011;13033;50.936;5.334;2023-04-24T13:38:52;7.97;;;4.43;;
25023;SDS011;13033;50.936;5.334;2023-04-24T13:41:18;10.35;;;4.47;;
25023;SDS011;13033;50.936;5.334;2023-04-24T13:43:44;9.40;;;4.95;;
25023;SDS011;13033;50.936;5.334;2023-04-24T13:46:09;9.63;;;4.38;;
25023;SDS011;13033;50.936;5.334;2023-04-24T13:48:35;9.00;;;4.50;;
25023;SDS011;13033;50.936;5.334;2023-04-24T13:51:01;11.68;;;4.72;;
25023;SDS011;13033;50.936;5.334;2023-04-24T13:53:26;11.52;;;4.68;;
25023;SDS011;13033;50.936;5.334;2023-04-24T13:55:52;9.07;;;4.65;;
25023;SDS011;13033;50.936;5.334;2023-04-24T13:58:18;9.65;;;4.53;;
25023;SDS011;13033;50.936;5.334;2023-04-24T14:00:44;7.93;;;4.32;;
25023;SDS011;13033;50.936;5.334;2023-04-24T14:03:09;9.45;;;4.18;;
25023;SDS011;13033;50.936;5.334;2023-04-24T14:05:35;6.57;;;3.83;;
25023;SDS011;13033;50.936;5.334;2023-04-24T14:08:01;8.38;;;3.88;;
25023;SDS011;13033;50.936;5.334;2023-04-24T14:10:27;11.15;;;4.40;;
25023;SDS011;13033;50.936;5.334;2023-04-24T14:12:53;7.32;;;3.75;;
25023;SDS011;13033;50.936;5.334;2023-04-24T14:15:19;6.05;;;3.58;;
25023;SDS011;13033;50.936;5.334;2023-04-24T14:17:44;5.55;;;3.55;;
25023;SDS011;13033;50.936;5.334;2023-04-24T14:20:12;5.95;;;3.15;;
25023;SDS011;13033;50.936;5.334;2023-04-24T14:22:38;8.02;;;3.75;;
25023;SDS011;13033;50.936;5.334;2023-04-24T14:25:04;8.20;;;3.88;;
25023;SDS011;13033;50.936;5.334;2023-04-24T14:27:31;8.98;;;3.78;;
25023;SDS011;13033;50.936;5.334;2023-04-24T14:29:57;7.85;;;3.65;;
25023;SDS011;13033;50.936;5.334;2023-04-24T14:32:23;7.40;;;3.90;;
25023;SDS011;13033;50.936;5.334;2023-04-24T14:34:48;10.10;;;4.13;;
25023;SDS011;13033;50.936;5.334;2023-04-24T14:37:14;7.57;;;3.65;;
25023;SDS011;13033;50.936;5.334;2023-04-24T14:39:40;7.38;;;3.70;;
25023;SDS011;13033;50.936;5.334;2023-04-24T14:42:06;7.07;;;3.63;;
25023;SDS011;13033;50.936;5.334;2023-04-24T14:44:31;7.38;;;3.70;;